sensor_id;sensor_type;location;lat;lon;timestamp;temperature;humidity
28532;DHT22;15738;44.860;10.066;2022-08-21T00:01:57;22.40;99.90
28532;DHT22;15738;44.860;10.066;2022-08-21T00:04:43;23.00;99.90
28532;DHT22;15738;44.860;10.066;2022-08-21T00:07:41;22.70;99.90
28532;DHT22;15738;44.860;10.066;2022-08-21T00:10:27;22.70;99.90
28532;DHT22;15738;44.860;10.066;2022-08-21T00:13:14;22.50;99.90
28532;DHT22;15738;44.860;10.066;2022-08-21T00:16:03;22.50;99.90
28532;DHT22;15738;44.860;10.066;2022-08-21T00:18:49;23.00;99.90
28532;DHT22;15738;44.860;10.066;2022-08-21T00:21:36;22.50;99.90
28532;DHT22;15738;44.860;10.066;2022-08-21T00:24:22;22.50;99.90
28532;DHT22;15738;44.860;10.066;2022-08-21T00:29:54;22.20;99.90
28532;DHT22;15738;44.860;10.066;2022-08-21T00:32:41;22.20;99.90
28532;DHT22;15738;44.860;10.066;2022-08-21T00:35:33;22.50;99.90
28532;DHT22;15738;44.860;10.066;2022-08-21T00:38:19;22.40;99.90
28532;DHT22;15738;44.860;10.066;2022-08-21T00:41:07;22.90;99.90
28532;DHT22;15738;44.860;10.066;2022-08-21T00:44:15;22.40;99.90
28532;DHT22;15738;44.860;10.066;2022-08-21T00:49:47;22.60;99.90
28532;DHT22;15738;44.860;10.066;2022-08-21T00:52:35;21.60;99.90
28532;DHT22;15738;44.860;10.066;2022-08-21T00:55:22;22.20;99.90
28532;DHT22;15738;44.860;10.066;2022-08-21T00:58:12;22.40;99.90
28532;DHT22;15738;44.860;10.066;2022-08-21T01:01:03;22.40;99.90
28532;DHT22;15738;44.860;10.066;2022-08-21T01:03:53;22.30;99.90
28532;DHT22;15738;44.860;10.066;2022-08-21T01:06:39;22.20;99.90
28532;DHT22;15738;44.860;10.066;2022-08-21T01:09:25;22.10;99.90
28532;DHT22;15738;44.860;10.066;2022-08-21T01:12:12;22.10;99.90
28532;DHT22;15738;44.860;10.066;2022-08-21T01:15:02;22.10;99.90
28532;DHT22;15738;44.860;10.066;2022-08-21T01:17:49;21.60;99.90
28532;DHT22;15738;44.860;10.066;2022-08-21T01:20:36;22.90;99.90
28532;DHT22;15738;44.860;10.066;2022-08-21T01:23:22;22.10;99.90
28532;DHT22;15738;44.860;10.066;2022-08-21T01:26:09;21.80;99.90
28532;DHT22;15738;44.860;10.066;2022-08-21T01:29:05;21.90;99.90
28532;DHT22;15738;44.860;10.066;2022-08-21T01:31:53;22.10;99.90
28532;DHT22;15738;44.860;10.066;2022-08-21T01:34:43;22.10;99.90
28532;DHT22;15738;44.860;10.066;2022-08-21T01:40:16;22.00;99.90
28532;DHT22;15738;44.860;10.066;2022-08-21T01:43:02;22.00;99.90
28532;DHT22;15738;44.860;10.066;2022-08-21T01:45:48;21.80;99.90
28532;DHT22;15738;44.860;10.066;2022-08-21T01:48:34;21.90;99.90
28532;DHT22;15738;44.860;10.066;2022-08-21T01:51:20;21.30;99.90
28532;DHT22;15738;44.860;10.066;2022-08-21T01:54:06;22.00;99.90
28532;DHT22;15738;44.860;10.066;2022-08-21T01:56:53;22.80;99.90
28532;DHT22;15738;44.860;10.066;2022-08-21T01:59:39;21.90;99.90
28532;DHT22;15738;44.860;10.066;2022-08-21T02:02:25;21.90;99.90
28532;DHT22;15738;44.860;10.066;2022-08-21T02:05:12;22.00;99.90
28532;DHT22;15738;44.860;10.066;2022-08-21T02:13:33;21.80;99.90
28532;DHT22;15738;44.860;10.066;2022-08-21T02:16:19;21.50;99.90
28532;DHT22;15738;44.860;10.066;2022-08-21T02:19:05;21.60;99.90
28532;DHT22;15738;44.860;10.066;2022-08-21T02:21:51;21.80;99.90
28532;DHT22;15738;44.860;10.066;2022-08-21T02:24:38;21.50;99.90
28532;DHT22;15738;44.860;10.066;2022-08-21T02:27:44;21.60;99.90
28532;DHT22;15738;44.860;10.066;2022-08-21T02:30:40;21.80;99.90
28532;DHT22;15738;44.860;10.066;2022-08-21T02:33:27;21.40;99.90
28532;DHT22;15738;44.860;10.066;2022-08-21T02:36:13;21.40;99.90
28532;DHT22;15738;44.860;10.066;2022-08-21T02:38:59;21.40;99.90
28532;DHT22;15738;44.860;10.066;2022-08-21T02:41:45;21.50;99.90
28532;DHT22;15738;44.860;10.066;2022-08-21T02:44:31;21.00;99.90
28532;DHT22;15738;44.860;10.066;2022-08-21T02:47:19;21.70;99.90
28532;DHT22;15738;44.860;10.066;2022-08-21T02:50:06;21.20;99.90
28532;DHT22;15738;44.860;10.066;2022-08-21T02:52:52;21.30;99.90
28532;DHT22;15738;44.860;10.066;2022-08-21T02:55:39;21.40;99.90
28532;DHT22;15738;44.860;10.066;2022-08-21T02:58:29;21.40;99.90
28532;DHT22;15738;44.860;10.066;2022-08-21T03:01:17;21.30;99.90
28532;DHT22;15738;44.860;10.066;2022-08-21T03:04:03;21.30;99.90
28532;DHT22;15738;44.860;10.066;2022-08-21T03:06:49;21.50;99.90
28532;DHT22;15738;44.860;10.066;2022-08-21T03:09:34;21.30;99.90
28532;DHT22;15738;44.860;10.066;2022-08-21T03:12:20;22.10;99.90
28532;DHT22;15738;44.860;10.066;2022-08-21T03:15:08;21.30;99.90
28532;DHT22;15738;44.860;10.066;2022-08-21T03:17:54;21.10;99.90
28532;DHT22;15738;44.860;10.066;2022-08-21T03:20:41;21.20;99.90
28532;DHT22;15738;44.860;10.066;2022-08-21T03:26:17;20.80;99.90
28532;DHT22;15738;44.860;10.066;2022-08-21T03:29:04;20.80;99.90
28532;DHT22;15738;44.860;10.066;2022-08-21T03:31:51;21.00;99.90
28532;DHT22;15738;44.860;10.066;2022-08-21T03:34:39;21.30;99.90
28532;DHT22;15738;44.860;10.066;2022-08-21T03:37:25;21.00;99.90
28532;DHT22;15738;44.860;10.066;2022-08-21T03:40:13;20.80;99.90
28532;DHT22;15738;44.860;10.066;2022-08-21T03:42:59;21.00;99.90
28532;DHT22;15738;44.860;10.066;2022-08-21T03:48:32;21.00;99.90
28532;DHT22;15738;44.860;10.066;2022-08-21T03:51:18;21.10;99.90
28532;DHT22;15738;44.860;10.066;2022-08-21T03:54:04;21.20;99.90
28532;DHT22;15738;44.860;10.066;2022-08-21T03:56:50;21.10;99.90
28532;DHT22;15738;44.860;10.066;2022-08-21T03:59:37;20.70;99.90
28532;DHT22;15738;44.860;10.066;2022-08-21T04:02:23;21.10;99.90
28532;DHT22;15738;44.860;10.066;2022-08-21T04:05:10;21.20;99.90
28532;DHT22;15738;44.860;10.066;2022-08-21T04:08:02;21.20;99.90
28532;DHT22;15738;44.860;10.066;2022-08-21T04:10:50;21.00;99.90
28532;DHT22;15738;44.860;10.066;2022-08-21T04:13:37;21.00;99.90
28532;DHT22;15738;44.860;10.066;2022-08-21T04:16:28;21.30;99.90
28532;DHT22;15738;44.860;10.066;2022-08-21T04:19:14;20.40;99.90
28532;DHT22;15738;44.860;10.066;2022-08-21T04:22:01;20.40;99.90
28532;DHT22;15738;44.860;10.066;2022-08-21T04:24:47;20.90;99.90
28532;DHT22;15738;44.860;10.066;2022-08-21T04:27:33;20.90;99.90
28532;DHT22;15738;44.860;10.066;2022-08-21T04:30:19;21.00;99.90
28532;DHT22;15738;44.860;10.066;2022-08-21T04:33:05;20.80;99.90
28532;DHT22;15738;44.860;10.066;2022-08-21T04:35:51;20.60;99.90
28532;DHT22;15738;44.860;10.066;2022-08-21T04:38:37;20.90;99.90
28532;DHT22;15738;44.860;10.066;2022-08-21T04:41:28;21.30;99.90
28532;DHT22;15738;44.860;10.066;2022-08-21T04:44:14;21.00;99.90
28532;DHT22;15738;44.860;10.066;2022-08-21T04:47:00;21.10;99.90
28532;DHT22;15738;44.860;10.066;2022-08-21T04:49:46;21.20;99.90
28532;DHT22;15738;44.860;10.066;2022-08-21T04:52:32;21.20;99.90
28532;DHT22;15738;44.860;10.066;2022-08-21T04:55:18;21.00;99.90
28532;DHT22;15738;44.860;10.066;2022-08-21T04:58:08;20.90;99.90
28532;DHT22;15738;44.860;10.066;2022-08-21T05:00:56;21.00;99.90
28532;DHT22;15738;44.860;10.066;2022-08-21T05:03:44;21.80;99.90
28532;DHT22;15738;44.860;10.066;2022-08-21T05:06:35;23.10;99.90
28532;DHT22;15738;44.860;10.066;2022-08-21T05:09:23;22.70;99.90
28532;DHT22;15738;44.860;10.066;2022-08-21T05:12:09;23.20;99.90
28532;DHT22;15738;44.860;10.066;2022-08-21T05:14:55;23.80;99.90
28532;DHT22;15738;44.860;10.066;2022-08-21T05:17:41;25.00;99.90
28532;DHT22;15738;44.860;10.066;2022-08-21T05:20:28;24.90;99.90
28532;DHT22;15738;44.860;10.066;2022-08-21T05:23:14;26.40;99.90
28532;DHT22;15738;44.860;10.066;2022-08-21T05:26:00;27.20;99.90
28532;DHT22;15738;44.860;10.066;2022-08-21T05:31:33;27.50;99.90
28532;DHT22;15738;44.860;10.066;2022-08-21T05:34:22;27.40;99.90
28532;DHT22;15738;44.860;10.066;2022-08-21T05:37:11;26.70;99.90
28532;DHT22;15738;44.860;10.066;2022-08-21T05:39:57;26.50;99.90
28532;DHT22;15738;44.860;10.066;2022-08-21T05:43:03;26.10;99.90
28532;DHT22;15738;44.860;10.066;2022-08-21T05:45:49;25.80;99.90
28532;DHT22;15738;44.860;10.066;2022-08-21T05:48:36;26.10;99.90
28532;DHT22;15738;44.860;10.066;2022-08-21T05:51:22;26.30;99.90
28532;DHT22;15738;44.860;10.066;2022-08-21T05:54:07;26.10;99.90
28532;DHT22;15738;44.860;10.066;2022-08-21T05:56:53;25.80;99.90
28532;DHT22;15738;44.860;10.066;2022-08-21T05:59:39;25.70;99.90
28532;DHT22;15738;44.860;10.066;2022-08-21T06:02:25;25.40;99.90
28532;DHT22;15738;44.860;10.066;2022-08-21T06:05:10;25.80;99.90
28532;DHT22;15738;44.860;10.066;2022-08-21T06:08:00;25.00;99.90
28532;DHT22;15738;44.860;10.066;2022-08-21T06:10:47;25.00;99.90
28532;DHT22;15738;44.860;10.066;2022-08-21T06:16:19;25.30;99.90
28532;DHT22;15738;44.860;10.066;2022-08-21T06:21:51;25.30;99.90
28532;DHT22;15738;44.860;10.066;2022-08-21T06:24:37;24.80;99.90
28532;DHT22;15738;44.860;10.066;2022-08-21T06:27:23;25.70;99.90
28532;DHT22;15738;44.860;10.066;2022-08-21T06:30:11;25.90;99.90
28532;DHT22;15738;44.860;10.066;2022-08-21T06:32:57;26.20;99.90
28532;DHT22;15738;44.860;10.066;2022-08-21T06:35:43;26.20;99.90
28532;DHT22;15738;44.860;10.066;2022-08-21T06:38:29;26.70;99.90
28532;DHT22;15738;44.860;10.066;2022-08-21T06:41:15;26.80;99.90
28532;DHT22;15738;44.860;10.066;2022-08-21T06:49:34;27.50;99.90
28532;DHT22;15738;44.860;10.066;2022-08-21T06:52:20;27.50;99.90
28532;DHT22;15738;44.860;10.066;2022-08-21T06:55:09;27.50;99.90
28532;DHT22;15738;44.860;10.066;2022-08-21T07:00:44;28.10;99.90
28532;DHT22;15738;44.860;10.066;2022-08-21T07:03:38;28.20;99.90
28532;DHT22;15738;44.860;10.066;2022-08-21T07:06:24;28.50;99.90
28532;DHT22;15738;44.860;10.066;2022-08-21T07:09:10;27.70;99.90
28532;DHT22;15738;44.860;10.066;2022-08-21T07:11:57;28.70;99.90
28532;DHT22;15738;44.860;10.066;2022-08-21T07:14:43;29.00;99.90
28532;DHT22;15738;44.860;10.066;2022-08-21T07:17:29;29.30;99.90
28532;DHT22;15738;44.860;10.066;2022-08-21T07:20:15;28.60;99.90
28532;DHT22;15738;44.860;10.066;2022-08-21T07:23:08;28.90;99.90
28532;DHT22;15738;44.860;10.066;2022-08-21T07:25:54;30.20;99.90
28532;DHT22;15738;44.860;10.066;2022-08-21T07:28:40;29.50;99.90
28532;DHT22;15738;44.860;10.066;2022-08-21T07:31:26;29.60;99.90
28532;DHT22;15738;44.860;10.066;2022-08-21T07:34:13;29.90;99.90
28532;DHT22;15738;44.860;10.066;2022-08-21T07:36:59;29.80;99.90
28532;DHT22;15738;44.860;10.066;2022-08-21T07:39:51;30.20;99.90
28532;DHT22;15738;44.860;10.066;2022-08-21T07:42:46;30.10;99.90
28532;DHT22;15738;44.860;10.066;2022-08-21T07:45:33;30.30;99.90
28532;DHT22;15738;44.860;10.066;2022-08-21T07:48:19;30.30;99.90
28532;DHT22;15738;44.860;10.066;2022-08-21T07:51:10;30.50;99.90
28532;DHT22;15738;44.860;10.066;2022-08-21T07:53:58;30.20;99.90
28532;DHT22;15738;44.860;10.066;2022-08-21T07:56:46;30.50;99.90
28532;DHT22;15738;44.860;10.066;2022-08-21T07:59:32;30.60;99.90
28532;DHT22;15738;44.860;10.066;2022-08-21T08:02:26;30.80;99.90
28532;DHT22;15738;44.860;10.066;2022-08-21T08:05:12;30.60;99.90
28532;DHT22;15738;44.860;10.066;2022-08-21T08:07:58;31.30;99.90
28532;DHT22;15738;44.860;10.066;2022-08-21T08:10:44;31.00;99.90
28532;DHT22;15738;44.860;10.066;2022-08-21T08:13:30;30.80;99.90
28532;DHT22;15738;44.860;10.066;2022-08-21T08:16:16;31.60;99.90
28532;DHT22;15738;44.860;10.066;2022-08-21T08:19:03;31.00;99.90
28532;DHT22;15738;44.860;10.066;2022-08-21T08:21:49;30.40;99.90
28532;DHT22;15738;44.860;10.066;2022-08-21T08:24:38;31.60;99.90
28532;DHT22;15738;44.860;10.066;2022-08-21T08:27:25;30.40;99.90
28532;DHT22;15738;44.860;10.066;2022-08-21T08:30:12;31.40;99.90
28532;DHT22;15738;44.860;10.066;2022-08-21T08:35:48;31.80;99.90
28532;DHT22;15738;44.860;10.066;2022-08-21T08:38:34;31.90;99.90
28532;DHT22;15738;44.860;10.066;2022-08-21T08:41:21;31.90;99.90
28532;DHT22;15738;44.860;10.066;2022-08-21T08:44:15;31.80;99.90
28532;DHT22;15738;44.860;10.066;2022-08-21T08:47:01;31.60;99.90
28532;DHT22;15738;44.860;10.066;2022-08-21T08:49:55;32.10;99.90
28532;DHT22;15738;44.860;10.066;2022-08-21T08:53:07;31.60;99.90
28532;DHT22;15738;44.860;10.066;2022-08-21T08:55:54;31.50;99.90
28532;DHT22;15738;44.860;10.066;2022-08-21T08:58:43;30.50;99.90
28532;DHT22;15738;44.860;10.066;2022-08-21T09:01:30;31.90;99.90
28532;DHT22;15738;44.860;10.066;2022-08-21T09:04:25;31.70;99.90
28532;DHT22;15738;44.860;10.066;2022-08-21T09:13:21;31.70;99.90
28532;DHT22;15738;44.860;10.066;2022-08-21T09:19:03;31.40;99.90
28532;DHT22;15738;44.860;10.066;2022-08-21T09:25:07;31.50;99.90
28532;DHT22;15738;44.860;10.066;2022-08-21T09:27:54;30.10;99.90
28532;DHT22;15738;44.860;10.066;2022-08-21T09:30:41;32.00;99.90
28532;DHT22;15738;44.860;10.066;2022-08-21T09:33:28;32.00;99.90
28532;DHT22;15738;44.860;10.066;2022-08-21T09:36:33;31.60;99.90
28532;DHT22;15738;44.860;10.066;2022-08-21T09:39:32;31.30;99.90
28532;DHT22;15738;44.860;10.066;2022-08-21T09:42:31;31.40;99.90
28532;DHT22;15738;44.860;10.066;2022-08-21T09:45:18;31.00;99.90
28532;DHT22;15738;44.860;10.066;2022-08-21T09:48:22;31.60;99.90
28532;DHT22;15738;44.860;10.066;2022-08-21T09:51:16;31.40;99.90
28532;DHT22;15738;44.860;10.066;2022-08-21T09:56:55;31.60;99.90
28532;DHT22;15738;44.860;10.066;2022-08-21T10:00:33;30.90;99.90
28532;DHT22;15738;44.860;10.066;2022-08-21T10:03:21;31.50;99.90
28532;DHT22;15738;44.860;10.066;2022-08-21T10:06:08;31.20;99.90
28532;DHT22;15738;44.860;10.066;2022-08-21T10:09:12;31.30;99.90
28532;DHT22;15738;44.860;10.066;2022-08-21T10:12:19;31.30;99.90
28532;DHT22;15738;44.860;10.066;2022-08-21T10:18:47;31.40;99.90
28532;DHT22;15738;44.860;10.066;2022-08-21T10:30:56;31.30;99.90
28532;DHT22;15738;44.860;10.066;2022-08-21T10:34:16;31.00;99.90
28532;DHT22;15738;44.860;10.066;2022-08-21T10:40:40;30.80;99.90
28532;DHT22;15738;44.860;10.066;2022-08-21T10:43:51;30.60;99.90
28532;DHT22;15738;44.860;10.066;2022-08-21T10:47:02;30.60;99.90
28532;DHT22;15738;44.860;10.066;2022-08-21T10:50:03;31.00;99.90
28532;DHT22;15738;44.860;10.066;2022-08-21T10:56:01;30.60;99.90
28532;DHT22;15738;44.860;10.066;2022-08-21T11:02:19;31.10;99.90
28532;DHT22;15738;44.860;10.066;2022-08-21T11:05:12;30.70;99.90
28532;DHT22;15738;44.860;10.066;2022-08-21T11:08:10;30.60;99.90
28532;DHT22;15738;44.860;10.066;2022-08-21T11:11:04;31.30;99.90
28532;DHT22;15738;44.860;10.066;2022-08-21T11:16:59;30.40;99.90
28532;DHT22;15738;44.860;10.066;2022-08-21T11:19:59;31.10;99.90
28532;DHT22;15738;44.860;10.066;2022-08-21T11:22:56;30.70;99.90
28532;DHT22;15738;44.860;10.066;2022-08-21T11:26:19;30.60;99.90
28532;DHT22;15738;44.860;10.066;2022-08-21T11:29:23;31.10;99.90
28532;DHT22;15738;44.860;10.066;2022-08-21T11:38:34;30.70;99.90
28532;DHT22;15738;44.860;10.066;2022-08-21T11:44:46;30.90;99.90
28532;DHT22;15738;44.860;10.066;2022-08-21T11:50:40;30.60;99.90
28532;DHT22;15738;44.860;10.066;2022-08-21T11:53:33;30.50;99.90
28532;DHT22;15738;44.860;10.066;2022-08-21T11:56:26;30.80;99.90
28532;DHT22;15738;44.860;10.066;2022-08-21T11:59:20;30.80;99.90
28532;DHT22;15738;44.860;10.066;2022-08-21T12:02:14;30.20;99.90
28532;DHT22;15738;44.860;10.066;2022-08-21T12:05:07;31.00;99.90
28532;DHT22;15738;44.860;10.066;2022-08-21T12:11:08;30.60;99.90
28532;DHT22;15738;44.860;10.066;2022-08-21T12:16:52;30.70;99.90
28532;DHT22;15738;44.860;10.066;2022-08-21T12:20:14;30.40;99.90
28532;DHT22;15738;44.860;10.066;2022-08-21T12:26:02;30.40;99.90
28532;DHT22;15738;44.860;10.066;2022-08-21T12:28:48;30.80;99.90
28532;DHT22;15738;44.860;10.066;2022-08-21T12:31:34;30.70;99.90
28532;DHT22;15738;44.860;10.066;2022-08-21T12:34:25;29.90;99.90
28532;DHT22;15738;44.860;10.066;2022-08-21T12:40:28;30.90;99.90
28532;DHT22;15738;44.860;10.066;2022-08-21T12:43:19;30.80;99.90
28532;DHT22;15738;44.860;10.066;2022-08-21T12:52:19;30.80;99.90
28532;DHT22;15738;44.860;10.066;2022-08-21T12:55:10;30.90;99.90
28532;DHT22;15738;44.860;10.066;2022-08-21T12:57:57;31.30;99.90
28532;DHT22;15738;44.860;10.066;2022-08-21T13:00:54;30.90;99.90
28532;DHT22;15738;44.860;10.066;2022-08-21T13:03:41;30.80;99.90
28532;DHT22;15738;44.860;10.066;2022-08-21T13:06:28;31.50;99.90
28532;DHT22;15738;44.860;10.066;2022-08-21T13:09:19;31.00;99.90
28532;DHT22;15738;44.860;10.066;2022-08-21T13:12:08;30.70;99.90
28532;DHT22;15738;44.860;10.066;2022-08-21T13:14:57;31.40;99.90
28532;DHT22;15738;44.860;10.066;2022-08-21T13:17:47;31.30;99.90
28532;DHT22;15738;44.860;10.066;2022-08-21T13:23:27;31.10;99.90
28532;DHT22;15738;44.860;10.066;2022-08-21T13:26:18;30.80;99.90
28532;DHT22;15738;44.860;10.066;2022-08-21T13:29:10;31.00;99.90
28532;DHT22;15738;44.860;10.066;2022-08-21T13:32:01;31.70;99.90
28532;DHT22;15738;44.860;10.066;2022-08-21T13:34:48;30.80;99.90
28532;DHT22;15738;44.860;10.066;2022-08-21T13:37:40;31.50;99.90
28532;DHT22;15738;44.860;10.066;2022-08-21T13:40:32;30.90;99.90
28532;DHT22;15738;44.860;10.066;2022-08-21T13:43:21;31.00;99.90
28532;DHT22;15738;44.860;10.066;2022-08-21T13:46:10;31.30;99.90
28532;DHT22;15738;44.860;10.066;2022-08-21T13:48:59;31.10;99.90
28532;DHT22;15738;44.860;10.066;2022-08-21T13:51:45;31.40;99.90
28532;DHT22;15738;44.860;10.066;2022-08-21T13:54:38;30.30;99.90
28532;DHT22;15738;44.860;10.066;2022-08-21T13:57:31;30.20;99.90
28532;DHT22;15738;44.860;10.066;2022-08-21T14:00:27;31.60;99.90
28532;DHT22;15738;44.860;10.066;2022-08-21T14:06:22;31.60;99.90
28532;DHT22;15738;44.860;10.066;2022-08-21T14:09:40;31.00;99.90
28532;DHT22;15738;44.860;10.066;2022-08-21T14:12:42;31.00;99.90
28532;DHT22;15738;44.860;10.066;2022-08-21T14:15:30;30.90;99.90
28532;DHT22;15738;44.860;10.066;2022-08-21T14:18:18;31.00;99.90
28532;DHT22;15738;44.860;10.066;2022-08-21T14:21:08;31.20;99.90
28532;DHT22;15738;44.860;10.066;2022-08-21T14:24:29;31.30;99.90
28532;DHT22;15738;44.860;10.066;2022-08-21T14:27:17;31.70;99.90
28532;DHT22;15738;44.860;10.066;2022-08-21T14:30:13;30.90;99.90
28532;DHT22;15738;44.860;10.066;2022-08-21T14:33:03;31.20;99.90
28532;DHT22;15738;44.860;10.066;2022-08-21T14:35:49;31.30;99.90
28532;DHT22;15738;44.860;10.066;2022-08-21T14:38:37;31.30;99.90
28532;DHT22;15738;44.860;10.066;2022-08-21T14:41:25;31.30;99.90
28532;DHT22;15738;44.860;10.066;2022-08-21T14:44:17;30.50;99.90
28532;DHT22;15738;44.860;10.066;2022-08-21T14:47:04;31.90;99.90
28532;DHT22;15738;44.860;10.066;2022-08-21T14:49:50;31.80;99.90
28532;DHT22;15738;44.860;10.066;2022-08-21T14:52:40;31.80;99.90
28532;DHT22;15738;44.860;10.066;2022-08-21T14:55:26;31.00;99.90
28532;DHT22;15738;44.860;10.066;2022-08-21T14:58:12;31.30;99.90
28532;DHT22;15738;44.860;10.066;2022-08-21T15:00:58;31.20;99.90
28532;DHT22;15738;44.860;10.066;2022-08-21T15:03:49;31.30;99.90
28532;DHT22;15738;44.860;10.066;2022-08-21T15:06:34;30.40;99.90
28532;DHT22;15738;44.860;10.066;2022-08-21T15:09:20;31.20;99.90
28532;DHT22;15738;44.860;10.066;2022-08-21T15:12:07;31.40;99.90
28532;DHT22;15738;44.860;10.066;2022-08-21T15:14:53;30.80;99.90
28532;DHT22;15738;44.860;10.066;2022-08-21T15:17:39;31.30;99.90
28532;DHT22;15738;44.860;10.066;2022-08-21T15:20:30;31.10;99.90
28532;DHT22;15738;44.860;10.066;2022-08-21T15:23:17;31.20;99.90
28532;DHT22;15738;44.860;10.066;2022-08-21T15:26:03;30.10;99.90
28532;DHT22;15738;44.860;10.066;2022-08-21T15:28:49;31.00;99.90
28532;DHT22;15738;44.860;10.066;2022-08-21T15:31:36;31.10;99.90
28532;DHT22;15738;44.860;10.066;2022-08-21T15:34:23;31.00;99.90
28532;DHT22;15738;44.860;10.066;2022-08-21T15:37:12;30.40;99.90
28532;DHT22;15738;44.860;10.066;2022-08-21T15:39:58;31.10;99.90
28532;DHT22;15738;44.860;10.066;2022-08-21T15:42:44;30.80;99.90
28532;DHT22;15738;44.860;10.066;2022-08-21T15:45:30;30.60;99.90
28532;DHT22;15738;44.860;10.066;2022-08-21T15:48:17;31.40;99.90
28532;DHT22;15738;44.860;10.066;2022-08-21T15:51:03;31.30;99.90
28532;DHT22;15738;44.860;10.066;2022-08-21T15:53:50;31.30;99.90
28532;DHT22;15738;44.860;10.066;2022-08-21T15:56:38;30.50;99.90
28532;DHT22;15738;44.860;10.066;2022-08-21T15:59:25;29.60;99.90
28532;DHT22;15738;44.860;10.066;2022-08-21T16:02:16;30.50;99.90
28532;DHT22;15738;44.860;10.066;2022-08-21T16:05:03;30.70;99.90
28532;DHT22;15738;44.860;10.066;2022-08-21T16:07:50;30.60;99.90
28532;DHT22;15738;44.860;10.066;2022-08-21T16:10:36;30.70;99.90
28532;DHT22;15738;44.860;10.066;2022-08-21T16:13:25;30.70;99.90
28532;DHT22;15738;44.860;10.066;2022-08-21T16:16:16;29.80;99.90
28532;DHT22;15738;44.860;10.066;2022-08-21T16:19:03;31.10;99.90
28532;DHT22;15738;44.860;10.066;2022-08-21T16:24:37;31.40;99.90
28532;DHT22;15738;44.860;10.066;2022-08-21T16:27:25;30.90;99.90
28532;DHT22;15738;44.860;10.066;2022-08-21T16:30:12;30.90;99.90
28532;DHT22;15738;44.860;10.066;2022-08-21T16:33:01;30.50;99.90
28532;DHT22;15738;44.860;10.066;2022-08-21T16:35:47;30.80;99.90
28532;DHT22;15738;44.860;10.066;2022-08-21T16:38:34;30.30;99.90
28532;DHT22;15738;44.860;10.066;2022-08-21T16:41:31;29.70;99.90
28532;DHT22;15738;44.860;10.066;2022-08-21T16:44:18;28.30;97.70
28532;DHT22;15738;44.860;10.066;2022-08-21T16:47:06;30.70;99.90
28532;DHT22;15738;44.860;10.066;2022-08-21T16:49:54;29.90;99.90
28532;DHT22;15738;44.860;10.066;2022-08-21T16:52:39;30.30;99.90
28532;DHT22;15738;44.860;10.066;2022-08-21T16:55:25;29.80;99.90
28532;DHT22;15738;44.860;10.066;2022-08-21T16:58:18;30.30;99.90
28532;DHT22;15738;44.860;10.066;2022-08-21T17:01:07;30.10;99.90
28532;DHT22;15738;44.860;10.066;2022-08-21T17:03:54;29.90;99.90
28532;DHT22;15738;44.860;10.066;2022-08-21T17:06:41;30.00;99.90
28532;DHT22;15738;44.860;10.066;2022-08-21T17:09:28;30.30;99.90
28532;DHT22;15738;44.860;10.066;2022-08-21T17:12:15;30.20;99.90
28532;DHT22;15738;44.860;10.066;2022-08-21T17:15:16;29.40;99.90
28532;DHT22;15738;44.860;10.066;2022-08-21T17:18:09;30.10;99.90
28532;DHT22;15738;44.860;10.066;2022-08-21T17:20:56;30.10;99.90
28532;DHT22;15738;44.860;10.066;2022-08-21T17:23:42;29.90;99.90
28532;DHT22;15738;44.860;10.066;2022-08-21T17:26:27;29.90;99.90
28532;DHT22;15738;44.860;10.066;2022-08-21T17:29:14;29.70;99.90
28532;DHT22;15738;44.860;10.066;2022-08-21T17:32:02;29.70;99.90
28532;DHT22;15738;44.860;10.066;2022-08-21T17:34:49;29.80;99.90
28532;DHT22;15738;44.860;10.066;2022-08-21T17:40:20;29.70;99.90
28532;DHT22;15738;44.860;10.066;2022-08-21T17:43:07;30.30;99.90
28532;DHT22;15738;44.860;10.066;2022-08-21T17:45:58;29.30;99.90
28532;DHT22;15738;44.860;10.066;2022-08-21T17:48:43;29.00;99.90
28532;DHT22;15738;44.860;10.066;2022-08-21T17:51:33;29.20;99.90
28532;DHT22;15738;44.860;10.066;2022-08-21T17:54:19;29.20;99.90
28532;DHT22;15738;44.860;10.066;2022-08-21T17:57:06;29.00;99.90
28532;DHT22;15738;44.860;10.066;2022-08-21T17:59:53;29.00;99.90
28532;DHT22;15738;44.860;10.066;2022-08-21T18:02:45;29.00;99.90
28532;DHT22;15738;44.860;10.066;2022-08-21T18:05:31;28.80;99.90
28532;DHT22;15738;44.860;10.066;2022-08-21T18:08:17;28.70;99.90
28532;DHT22;15738;44.860;10.066;2022-08-21T18:11:03;28.70;99.90
28532;DHT22;15738;44.860;10.066;2022-08-21T18:13:49;28.60;99.90
28532;DHT22;15738;44.860;10.066;2022-08-21T18:16:36;28.50;99.90
28532;DHT22;15738;44.860;10.066;2022-08-21T18:19:23;28.40;99.90
28532;DHT22;15738;44.860;10.066;2022-08-21T18:22:10;28.30;99.90
28532;DHT22;15738;44.860;10.066;2022-08-21T18:24:56;28.20;99.90
28532;DHT22;15738;44.860;10.066;2022-08-21T18:27:43;28.10;99.90
28532;DHT22;15738;44.860;10.066;2022-08-21T18:30:31;28.10;99.90
28532;DHT22;15738;44.860;10.066;2022-08-21T18:33:20;28.00;99.90
28532;DHT22;15738;44.860;10.066;2022-08-21T18:36:07;27.90;99.90
28532;DHT22;15738;44.860;10.066;2022-08-21T18:38:56;27.80;99.90
28532;DHT22;15738;44.860;10.066;2022-08-21T18:42:07;27.70;99.90
28532;DHT22;15738;44.860;10.066;2022-08-21T18:44:56;27.60;99.90
28532;DHT22;15738;44.860;10.066;2022-08-21T18:47:47;27.50;99.90
28532;DHT22;15738;44.860;10.066;2022-08-21T18:50:37;27.40;99.90
28532;DHT22;15738;44.860;10.066;2022-08-21T18:53:23;27.30;99.90
28532;DHT22;15738;44.860;10.066;2022-08-21T18:56:13;27.20;99.90
28532;DHT22;15738;44.860;10.066;2022-08-21T18:59:00;27.20;99.90
28532;DHT22;15738;44.860;10.066;2022-08-21T19:01:46;27.10;99.90
28532;DHT22;15738;44.860;10.066;2022-08-21T19:04:36;27.10;99.90
28532;DHT22;15738;44.860;10.066;2022-08-21T19:07:29;27.00;99.90
28532;DHT22;15738;44.860;10.066;2022-08-21T19:10:17;26.90;99.90
28532;DHT22;15738;44.860;10.066;2022-08-21T19:13:17;26.80;99.90
28532;DHT22;15738;44.860;10.066;2022-08-21T19:16:04;26.80;99.90
28532;DHT22;15738;44.860;10.066;2022-08-21T19:18:54;26.70;99.90
28532;DHT22;15738;44.860;10.066;2022-08-21T19:21:42;26.70;99.90
28532;DHT22;15738;44.860;10.066;2022-08-21T19:24:29;26.60;99.90
28532;DHT22;15738;44.860;10.066;2022-08-21T19:27:16;26.60;99.90
28532;DHT22;15738;44.860;10.066;2022-08-21T19:30:04;26.50;99.90
28532;DHT22;15738;44.860;10.066;2022-08-21T19:32:50;26.60;99.90
28532;DHT22;15738;44.860;10.066;2022-08-21T19:35:36;26.40;99.90